Time;durP1;ratioP1;P1;durP2;ratioP2;P2;SDS_P1;SDS_P2;PMS_P1;PMS_P2;Temp;Humidity;BMP_temperature;BMP_pressure;BME280_temperature;BME280_humidity;BME280_pressure;Samples;Min_cycle;Max_cycle;Signal;HPM_P1;HPM_P2
2023/08/21 00:03:39;;;;;;;10.32;6.82;;;;;;;24.51;61.24;98271.00;10373990;28;20081;-66
2023/08/21 00:09:01;;;;;;;9.02;6.55;;;;;;;24.43;61.46;98265.16;10374141;28;20121;-67
2023/08/21 00:14:22;;;;;;;8.57;6.60;;;;;;;24.35;62.17;98250.72;10387354;28;20085;-67
2023/08/21 00:19:44;;;;;;;9.10;6.80;;;;;;;24.26;62.92;98259.06;10374557;28;20050;-67
2023/08/21 00:25:04;;;;;;;12.52;7.07;;;;;;;24.22;63.29;98261.84;10374239;28;20069;-67
2023/08/21 00:30:25;;;;;;;7.50;6.18;;;;;;;24.19;63.71;98260.31;10374449;28;20077;-67
2023/08/21 00:35:46;;;;;;;11.30;6.78;;;;;;;24.16;63.76;98261.69;10373115;28;20117;-67
2023/08/21 00:41:07;;;;;;;8.45;6.03;;;;;;;24.10;64.19;98255.84;10374082;28;20461;-67
2023/08/21 00:46:28;;;;;;;10.20;6.53;;;;;;;23.99;64.47;98254.19;10374120;28;20073;-67
2023/08/21 00:51:49;;;;;;;8.80;6.63;;;;;;;23.87;65.07;98248.94;10373696;28;20077;-67
2023/08/21 00:57:12;;;;;;;11.77;7.05;;;;;;;23.81;65.26;98245.19;10372725;28;20062;-66
2023/08/21 01:02:33;;;;;;;8.50;6.60;;;;;;;23.72;65.97;98243.56;10372437;28;20133;-67
2023/08/21 01:08:01;;;;;;;8.00;6.22;;;;;;;23.66;66.17;98247.00;10372490;28;20491;-67
2023/08/21 01:13:54;;;;;;;10.00;6.68;;;;;;;23.63;66.94;98248.34;10373544;28;20121;-66
2023/08/21 01:19:21;;;;;;;8.68;5.90;;;;;;;23.60;66.82;98253.28;10358690;28;20122;-67
2023/08/21 01:24:42;;;;;;;11.07;5.72;;;;;;;23.60;66.97;98258.25;10380363;28;20116;-66
2023/08/21 01:30:03;;;;;;;6.15;5.43;;;;;;;23.52;67.03;98255.91;10379848;28;20125;-67
2023/08/21 01:35:24;;;;;;;7.80;5.80;;;;;;;23.48;67.46;98267.19;10379466;28;20061;-67
2023/08/21 01:40:46;;;;;;;9.00;5.53;;;;;;;23.48;67.70;98266.47;10365713;28;20052;-67
2023/08/21 01:46:09;;;;;;;7.30;5.82;;;;;;;23.49;67.94;98262.22;10379127;28;20148;-67
2023/08/21 01:51:30;;;;;;;11.07;6.07;;;;;;;23.48;68.01;98270.06;10379046;28;20136;-66
2023/08/21 01:56:51;;;;;;;6.95;5.72;;;;;;;23.42;68.06;98258.50;10378703;28;20499;-67
2023/08/21 02:02:12;;;;;;;7.05;5.82;;;;;;;23.35;68.26;98259.72;10378634;28;20125;-67
2023/08/21 02:07:32;;;;;;;8.15;6.53;;;;;;;23.30;68.43;98253.22;10378460;28;20062;-66
2023/08/21 02:12:54;;;;;;;10.27;5.75;;;;;;;23.21;68.54;98251.56;10379202;28;20129;-67
2023/08/21 02:18:15;;;;;;;9.90;6.43;;;;;;;23.16;68.82;98244.31;10378058;28;20136;-67
2023/08/21 02:23:35;;;;;;;8.75;6.10;;;;;;;23.12;69.23;98242.09;10363931;28;20497;-67
2023/08/21 02:28:57;;;;;;;7.65;5.88;;;;;;;23.08;69.60;98233.44;10378623;28;20463;-66
2023/08/21 02:34:18;;;;;;;11.27;6.10;;;;;;;23.09;69.58;98245.56;10377258;28;20176;-67
2023/08/21 02:39:39;;;;;;;7.60;5.90;;;;;;;23.00;69.88;98238.94;10376934;28;20129;-67
2023/08/21 02:45:03;;;;;;;6.60;5.88;;;;;;;22.90;70.33;98241.50;10378054;28;20429;-67
2023/08/21 02:50:24;;;;;;;11.10;5.93;;;;;;;22.87;70.25;98247.78;10377726;28;20141;-67
2023/08/21 02:55:45;;;;;;;10.25;5.28;;;;;;;22.82;70.71;98247.66;10377367;28;20128;-67
2023/08/21 03:01:06;;;;;;;8.02;5.80;;;;;;;22.85;70.96;98243.50;10362281;28;20141;-67
2023/08/21 03:06:27;;;;;;;11.50;6.20;;;;;;;22.85;70.75;98257.00;10377646;28;20137;-67
2023/08/21 03:11:47;;;;;;;7.13;6.22;;;;;;;22.86;71.15;98258.47;10376757;28;20117;-67
2023/08/21 03:17:09;;;;;;;7.43;6.10;;;;;;;22.87;71.21;98244.94;10376476;28;20061;-68
2023/08/21 03:22:31;;;;;;;8.35;6.00;;;;;;;22.85;70.94;98251.31;10376331;28;20117;-68
2023/08/21 03:27:52;;;;;;;8.83;6.23;;;;;;;22.81;71.38;98268.25;10361717;28;20113;-67
2023/08/21 03:33:13;;;;;;;9.90;6.22;;;;;;;22.81;71.26;98276.81;10375063;28;20520;-67
2023/08/21 03:38:34;;;;;;;10.20;6.60;;;;;;;22.77;71.43;98283.09;10374687;28;20125;-68
2023/08/21 03:43:55;;;;;;;10.82;6.88;;;;;;;22.73;71.33;98285.09;10360776;28;20535;-67
2023/08/21 03:49:16;;;;;;;10.75;6.28;;;;;;;22.67;71.75;98285.66;10388225;28;20112;-67
2023/08/21 03:54:41;;;;;;;9.63;6.25;;;;;;;22.64;71.55;98283.44;10374224;28;20072;-67
2023/08/21 04:00:02;;;;;;;12.30;6.30;;;;;;;22.52;71.77;98278.84;10374376;28;20093;-67
2023/08/21 04:05:24;;;;;;;8.73;6.15;;;;;;;22.48;72.11;98273.03;10374483;28;20627;-67
2023/08/21 04:10:44;;;;;;;7.72;5.63;;;;;;;22.52;72.48;98272.44;10374715;28;20125;-67
2023/08/21 04:16:05;;;;;;;7.80;6.10;;;;;;;22.57;72.25;98274.00;10373513;28;20125;-68
2023/08/21 04:21:26;;;;;;;6.95;5.72;;;;;;;22.64;72.94;98277.75;10373386;28;20118;-67
2023/08/21 04:26:47;;;;;;;6.57;5.88;;;;;;;22.78;72.53;98275.31;10373870;28;20528;-67
2023/08/21 04:32:07;;;;;;;6.32;5.63;;;;;;;22.85;72.64;98279.78;10373200;28;20129;-66
2023/08/21 04:37:28;;;;;;;9.25;5.70;;;;;;;22.97;72.46;98280.13;10373199;28;20076;-67
2023/08/21 04:42:49;;;;;;;9.13;6.18;;;;;;;23.12;72.34;98284.06;10372714;28;20544;-67
2023/08/21 04:48:12;;;;;;;8.38;6.35;;;;;;;23.30;72.24;98272.44;10372812;28;20069;-66
2023/08/21 04:53:33;;;;;;;12.82;6.07;;;;;;;23.58;71.85;98278.84;10372667;28;20084;-67
2023/08/21 04:58:55;;;;;;;9.23;6.47;;;;;;;24.04;71.27;98284.25;10379824;28;20466;-66
2023/08/21 05:04:18;;;;;;;8.80;6.25;;;;;;;24.56;70.08;98283.97;10379887;28;20142;-68
2023/08/21 05:09:40;;;;;;;;;;;;;;;25.05;68.72;98288.53;10380992;28;20129;-67
2023/08/21 05:15:04;;;;;;;6.65;5.72;;;;;;;25.63;68.16;98293.13;10380196;28;20402;-68
2023/08/21 05:20:25;;;;;;;9.32;5.93;;;;;;;26.34;66.81;98313.53;10379875;28;20050;-67
2023/08/21 05:25:47;;;;;;;8.77;6.00;;;;;;;26.86;65.17;98310.66;10366156;28;20057;-67
2023/08/21 05:31:09;;;;;;;8.18;6.05;;;;;;;27.52;63.40;98312.09;10379548;28;20046;-66
2023/08/21 05:36:44;;;;;;;9.07;6.65;;;;;;;28.56;61.42;98310.00;10367634;28;20101;-67
2023/08/21 05:42:05;;;;;;;11.75;5.57;;;;;;;33.06;53.76;98314.84;10379052;28;20046;-67
2023/08/21 05:47:26;;;;;;;7.93;5.90;;;;;;;35.49;44.90;98325.72;10365143;28;20530;-67
2023/08/21 05:52:48;;;;;;;8.07;6.78;;;;;;;32.33;45.07;98327.97;10379631;28;20057;-67
2023/08/21 05:58:09;;;;;;;10.48;6.40;;;;;;;32.04;47.31;98344.81;10378339;28;20408;-70
2023/08/21 06:03:30;;;;;;;12.53;6.70;;;;;;;32.07;45.77;98348.41;10377912;28;20130;-67
2023/08/21 06:09:01;;;;;;;9.25;6.20;;;;;;;34.14;47.38;98345.06;10376360;28;20281;-70
2023/08/21 06:14:28;;;;;;;;;;;;;;;40.26;33.85;98343.03;10364573;28;20054;-71
2023/08/21 06:19:52;;;;;;;7.30;5.30;;;;;;;42.39;28.29;98340.41;10377649;28;19922;-71
2023/08/21 06:25:13;;;;;;;7.85;4.90;;;;;;;43.19;25.53;98348.63;10377998;28;20042;-71
2023/08/21 06:30:35;;;;;;;8.30;5.47;;;;;;;38.40;27.73;98360.38;10378113;28;20050;-70
2023/08/21 06:35:57;;;;;;;8.00;5.45;;;;;;;37.84;31.96;98360.78;10376531;28;20132;-70
2023/08/21 06:41:17;;;;;;;6.85;5.22;;;;;;;40.11;27.81;98354.59;10390526;28;20045;-71
2023/08/21 06:46:38;;;;;;;7.45;4.13;;;;;;;42.71;26.25;98362.19;10363206;28;20045;-71
2023/08/21 06:51:59;;;;;;;5.35;4.60;;;;;;;45.75;23.32;98364.94;10376349;28;20092;-71
2023/08/21 06:57:20;;;;;;;6.72;3.92;;;;;;;48.30;20.03;98359.50;10377029;28;20052;-71
2023/08/21 07:02:41;;;;;;;4.88;3.75;;;;;;;48.51;17.71;98370.47;10375523;28;20088;-71
2023/08/21 07:08:03;;;;;;;5.03;3.67;;;;;;;47.30;19.57;98358.72;10375948;28;20050;-71
2023/08/21 07:13:24;;;;;;;5.30;3.40;;;;;;;48.11;18.29;98366.09;10376585;28;20046;-72
2023/08/21 07:18:45;;;;;;;4.57;3.90;;;;;;;41.96;21.85;98354.25;10375953;28;20065;-70
2023/08/21 07:24:06;;;;;;;8.77;4.40;;;;;;;36.86;27.43;98354.94;10376305;28;20053;-70
2023/08/21 07:29:28;;;;;;;9.93;4.60;;;;;;;35.29;29.10;98356.63;10374862;28;20041;-70
2023/08/21 07:34:54;;;;;;;6.20;4.63;;;;;;;33.13;31.81;98365.34;10374745;28;20116;-71
2023/08/21 07:40:15;;;;;;;7.22;5.15;;;;;;;31.42;34.32;98357.50;10375233;28;20037;-70
2023/08/21 07:45:38;;;;;;;9.02;5.47;;;;;;;30.69;36.20;98355.63;10374547;28;20049;-70
2023/08/21 07:50:59;;;;;;;8.75;6.30;;;;;;;30.97;37.59;98349.75;10375083;28;20045;-70
2023/08/21 07:56:21;;;;;;;9.50;5.57;;;;;;;32.22;37.96;98348.97;10374853;28;20542;-71
2023/08/21 08:01:42;;;;;;;7.55;5.10;;;;;;;38.88;31.88;98346.97;10374247;28;20149;-71
2023/08/21 08:07:04;;;;;;;6.88;4.70;;;;;;;40.52;28.35;98359.44;10374340;28;20096;-70
2023/08/21 08:12:25;;;;;;;10.13;5.03;;;;;;;37.65;30.14;98361.34;10373634;28;20050;-70
2023/08/21 08:17:46;;;;;;;7.95;5.45;;;;;;;40.38;27.92;98368.09;10374175;28;20092;-71
2023/08/21 08:23:07;;;;;;;6.97;4.95;;;;;;;40.28;28.49;98360.47;10374168;28;20503;-72
2023/08/21 08:28:28;;;;;;;11.70;5.25;;;;;;;41.94;25.67;98360.22;10373927;28;20052;-71
2023/08/21 08:33:49;;;;;;;5.18;4.40;;;;;;;44.53;22.65;98364.47;10373314;28;20049;-72
2023/08/21 08:39:11;;;;;;;7.75;4.63;;;;;;;41.02;26.36;98347.00;10373893;28;20066;-72
2023/08/21 08:44:34;;;;;;;6.50;4.40;;;;;;;41.90;25.96;98367.00;10373243;28;20553;-72
2023/08/21 08:49:55;;;;;;;5.53;4.13;;;;;;;49.21;19.83;98357.53;10372441;28;20088;-72
2023/08/21 08:55:16;;;;;;;3.88;3.45;;;;;;;51.18;15.79;98363.97;10373430;28;20054;-73
2023/08/21 09:00:37;;;;;;;6.43;3.60;;;;;;;48.44;16.94;98365.00;10373429;28;20058;-72
2023/08/21 09:06:00;;;;;;;5.53;3.63;;;;;;;47.85;18.02;98363.53;10372952;28;20050;-72
2023/08/21 09:11:21;;;;;;;5.72;3.55;;;;;;;48.40;17.95;98356.47;10373331;28;20057;-73
2023/08/21 09:17:06;;;;;;;6.80;3.95;;;;;;;44.07;20.28;98347.34;10372299;28;20453;-70
2023/08/21 09:22:27;;;;;;;7.68;4.40;;;;;;;44.72;21.45;98355.25;10371791;28;20104;-72
2023/08/21 09:27:48;;;;;;;8.38;4.38;;;;;;;42.00;22.29;98354.06;10372754;28;20070;-72
2023/08/21 09:33:09;;;;;;;5.85;4.43;;;;;;;39.53;24.57;98348.91;10371765;28;20047;-72
2023/08/21 09:38:30;;;;;;;9.73;4.93;;;;;;;38.57;25.48;98350.25;10371756;28;20045;-72
2023/08/21 09:43:51;;;;;;;6.60;5.18;;;;;;;37.06;27.36;98344.91;10376530;28;20127;-71
2023/08/21 09:49:12;;;;;;;7.03;4.80;;;;;;;36.00;29.05;98341.94;10379853;28;20042;-71
2023/08/21 09:54:37;;;;;;;9.93;5.05;;;;;;;39.79;29.56;98333.28;10379818;28;20049;-71
2023/08/21 09:59:58;;;;;;;8.43;4.65;;;;;;;45.19;23.87;98331.72;10379225;28;20472;-72
2023/08/21 10:05:19;;;;;;;5.88;3.83;;;;;;;50.04;18.21;98324.03;10391808;28;20515;-72
2023/08/21 10:10:40;;;;;;;7.32;3.22;;;;;;;54.06;14.16;98329.13;10377968;28;20412;-72
2023/08/21 10:16:01;;;;;;;3.35;2.53;;;;;;;55.97;12.71;98314.13;10378645;28;20074;-71
2023/08/21 10:21:25;;;;;;;6.25;2.90;;;;;;;56.69;10.12;98313.56;10378683;28;20432;-72
2023/08/21 10:26:48;;;;;;;6.95;2.45;;;;;;;54.84;11.32;98313.56;10378351;28;20046;-72
2023/08/21 10:32:10;;;;;;;4.38;2.50;;;;;;;53.08;11.74;98314.28;10377125;28;20038;-72
2023/08/21 10:37:31;;;;;;;4.95;2.80;;;;;;;51.34;12.92;98308.25;10377711;28;20388;-72
2023/08/21 10:42:52;;;;;;;4.63;2.70;;;;;;;52.75;12.90;98304.84;10377935;28;20045;-72
2023/08/21 10:48:12;;;;;;;5.82;2.53;;;;;;;54.94;11.19;98302.81;10376418;28;20096;-72
2023/08/21 10:53:33;;;;;;;3.20;2.40;;;;;;;55.82;10.67;98296.38;10376612;28;20060;-71
2023/08/21 10:58:54;;;;;;;3.92;2.75;;;;;;;53.67;12.27;98309.16;10377287;28;20451;-71
2023/08/21 11:04:16;;;;;;;7.97;3.03;;;;;;;53.18;11.50;98305.06;10376651;28;20096;-72
2023/08/21 11:09:37;;;;;;;3.70;3.28;;;;;;;51.07;13.78;98301.75;10376662;28;20050;-73
2023/08/21 11:14:58;;;;;;;10.27;3.85;;;;;;;50.81;13.56;98295.88;10389155;28;20447;-71
2023/08/21 11:20:19;;;;;;;5.30;4.05;;;;;;;49.79;15.03;98292.72;10376468;28;20038;-73
2023/08/21 11:25:40;;;;;;;7.00;4.47;;;;;;;47.59;16.32;98291.63;10376073;28;20042;-72
2023/08/21 11:31:02;;;;;;;5.43;4.32;;;;;;;47.25;17.67;98289.63;10374891;28;20049;-71
2023/08/21 11:36:23;;;;;;;8.93;5.57;;;;;;;48.14;15.83;98279.25;10374989;28;20050;-72
2023/08/21 11:41:55;;;;;;;7.90;5.20;;;;;;;44.71;18.77;98283.19;10374252;28;20484;-72
2023/08/21 11:47:17;;;;;;;7.20;5.05;;;;;;;42.39;21.88;98279.50;10375389;28;20045;-71
2023/08/21 11:52:39;;;;;;;6.85;4.93;;;;;;;40.13;24.85;98274.88;10374506;28;20046;-72
2023/08/21 11:58:01;;;;;;;8.43;5.05;;;;;;;39.60;25.84;98277.81;10373965;28;20276;-72
2023/08/21 12:03:22;;;;;;;8.07;5.35;;;;;;;39.21;26.50;98276.44;10387229;28;20079;-71
2023/08/21 12:08:43;;;;;;;6.38;4.80;;;;;;;38.89;27.00;98263.78;10374638;28;20066;-71
2023/08/21 12:14:05;;;;;;;5.18;4.00;;;;;;;38.43;27.22;98256.78;10374570;28;20049;-72
2023/08/21 12:19:26;;;;;;;5.35;3.80;;;;;;;38.25;26.96;98252.31;10373270;28;20128;-72
2023/08/21 12:24:47;;;;;;;6.55;4.15;;;;;;;38.18;26.50;98248.88;10374489;28;20046;-72
2023/08/21 12:30:08;;;;;;;5.00;4.20;;;;;;;38.07;26.28;98247.81;10373130;28;20042;-72
2023/08/21 12:35:29;;;;;;;6.50;4.05;;;;;;;37.38;27.04;98253.03;10374091;28;20050;-72
2023/08/21 12:40:50;;;;;;;7.20;4.10;;;;;;;36.94;27.68;98255.81;10386767;28;20046;-71
2023/08/21 12:46:11;;;;;;;5.85;3.88;;;;;;;37.67;27.48;98241.16;10373735;28;20050;-71
2023/08/21 12:51:32;;;;;;;4.97;3.75;;;;;;;37.96;27.54;98243.84;10386374;28;20052;-70
2023/08/21 12:56:53;;;;;;;5.60;3.75;;;;;;;38.11;27.16;98230.19;10373525;28;20153;-70
2023/08/21 13:02:14;;;;;;;6.03;4.13;;;;;;;37.94;27.24;98232.28;10373678;28;20425;-71
2023/08/21 13:07:35;;;;;;;10.57;4.50;;;;;;;37.46;28.14;98238.22;10372446;28;20042;-71
2023/08/21 13:12:56;;;;;;;7.32;4.15;;;;;;;36.68;29.59;98237.69;10372285;28;20057;-71
2023/08/21 13:18:17;;;;;;;7.93;4.20;;;;;;;37.25;29.34;98235.94;10377600;28;20042;-71
2023/08/21 13:23:38;;;;;;;5.90;4.30;;;;;;;37.32;28.46;98221.22;10380923;28;20050;-70
2023/08/21 13:28:59;;;;;;;6.22;4.10;;;;;;;36.96;29.03;98218.69;10379656;28;20042;-71
2023/08/21 13:34:20;;;;;;;8.25;3.83;;;;;;;37.14;28.12;98220.28;10379496;28;20076;-71
2023/08/21 13:48:10;;;;;;;8.73;3.80;;;;;;;35.20;29.89;98201.59;10380273;28;20053;-71
2023/08/21 13:53:32;;;;;;;8.25;4.20;;;;;;;34.65;30.80;98202.13;10392539;28;20081;-70
2023/08/21 13:58:52;;;;;;;4.97;3.67;;;;;;;34.45;31.10;98203.25;10392527;28;20038;-71
2023/08/21 14:04:13;;;;;;;;;;;;;;;34.25;31.73;98204.38;10379784;28;20041;-71
2023/08/21 14:09:36;;;;;;;4.78;3.45;;;;;;;34.26;31.46;98200.03;10379444;28;19926;-71
2023/08/21 14:14:58;;;;;;;23.30;7.72;;;;;;;34.53;31.23;98196.59;10379173;28;20119;-71
2023/08/21 14:20:19;;;;;;;5.75;3.90;;;;;;;34.89;30.70;98195.81;10379127;28;20054;-70
2023/08/21 14:25:40;;;;;;;8.45;4.10;;;;;;;35.14;30.82;98186.56;10377854;28;20049;-71
2023/08/21 14:31:02;;;;;;;;;;;;;;;35.32;30.75;98188.97;10377711;28;20042;-71
2023/08/21 14:36:23;;;;;;;8.90;4.32;;;;;;;34.88;30.98;98179.88;10378838;28;19928;-70
2023/08/21 14:41:44;;;;;;;5.90;4.07;;;;;;;34.33;31.57;98174.53;10377331;28;20112;-70
2023/08/21 14:47:05;;;;;;;;;;;;;;;34.15;32.48;98173.41;10378407;28;20066;-71
2023/08/21 14:52:28;;;;;;;6.70;4.80;;;;;;;34.27;32.35;98174.66;10390071;28;19967;-71
2023/08/21 14:57:49;;;;;;;5.88;4.30;;;;;;;34.28;32.30;98173.91;10377418;28;20040;-70
2023/08/21 15:03:10;;;;;;;6.97;4.63;;;;;;;33.91;32.75;98159.44;10376906;28;20397;-71
2023/08/21 15:08:32;;;;;;;9.40;4.60;;;;;;;33.68;33.60;98176.47;10377014;28;20042;-70
2023/08/21 15:13:54;;;;;;;5.75;4.18;;;;;;;33.37;34.69;98166.91;10376823;28;20046;-70
2023/08/21 15:19:15;;;;;;;7.15;4.38;;;;;;;32.97;35.59;98169.66;10376974;28;20065;-69
2023/08/21 15:24:36;;;;;;;;;;;;;;;32.85;35.95;98166.25;10376758;28;20050;-69
2023/08/21 15:29:57;;;;;;;7.30;4.77;;;;;;;32.59;36.78;98173.81;10376135;28;19921;-71
2023/08/21 15:35:19;;;;;;;7.53;4.75;;;;;;;32.17;37.34;98167.09;10388510;28;20289;-71
2023/08/21 15:40:40;;;;;;;5.95;4.63;;;;;;;32.19;38.18;98157.69;10375521;28;20060;-71
2023/08/21 15:46:05;;;;;;;5.50;4.68;;;;;;;32.07;38.75;98160.72;10374455;28;20382;-70
2023/08/21 15:51:26;;;;;;;5.35;4.85;;;;;;;31.77;38.73;98167.56;10374306;28;20045;-71
2023/08/21 15:56:47;;;;;;;6.38;4.55;;;;;;;31.59;39.77;98171.31;10375338;28;20052;-71
2023/08/21 16:02:08;;;;;;;8.87;4.30;;;;;;;31.56;39.89;98164.13;10374777;28;20065;-70
2023/08/21 16:07:30;;;;;;;6.68;4.32;;;;;;;31.52;39.59;98159.09;10373925;28;20053;-71
2023/08/21 16:12:51;;;;;;;5.55;4.43;;;;;;;31.63;39.64;98160.44;10374315;28;20085;-70
2023/08/21 16:18:12;;;;;;;8.82;4.65;;;;;;;31.72;39.37;98163.97;10373610;28;20038;-70
2023/08/21 16:23:33;;;;;;;7.55;4.53;;;;;;;31.80;39.33;98166.06;10373862;28;20041;-71
2023/08/21 16:28:56;;;;;;;5.85;4.03;;;;;;;31.65;39.64;98159.69;10386884;28;20046;-71
2023/08/21 16:34:17;;;;;;;6.90;4.68;;;;;;;31.40;39.88;98162.09;10373002;28;20053;-70
2023/08/21 16:39:38;;;;;;;6.03;4.20;;;;;;;31.16;40.28;98168.03;10373992;28;20046;-71
2023/08/21 16:44:58;;;;;;;8.90;4.67;;;;;;;31.13;40.44;98175.28;10386803;28;20133;-70
2023/08/21 16:50:19;;;;;;;10.97;4.20;;;;;;;30.92;40.68;98175.44;10372678;28;20461;-70
2023/08/21 16:55:40;;;;;;;5.83;4.27;;;;;;;30.65;41.29;98177.03;10381906;28;20484;-70
2023/08/21 17:01:02;;;;;;;8.50;4.22;;;;;;;30.34;41.81;98174.28;10381735;28;20069;-70
2023/08/21 17:06:23;;;;;;;4.07;3.43;;;;;;;30.26;41.99;98171.44;10381558;28;20404;-70
2023/08/21 17:11:44;;;;;;;3.85;3.45;;;;;;;30.26;42.00;98159.94;10381919;28;20052;-70
2023/08/21 17:17:05;;;;;;;6.93;3.53;;;;;;;30.02;42.30;98171.50;10381352;28;20096;-70
2023/08/21 17:22:26;;;;;;;5.25;3.58;;;;;;;29.80;42.21;98167.22;10381196;28;20042;-70
2023/08/21 17:27:47;;;;;;;4.60;3.22;;;;;;;29.56;42.38;98170.16;10380719;28;20663;-70
2023/08/21 17:33:09;;;;;;;5.32;4.03;;;;;;;29.29;42.64;98178.78;10380728;28;20066;-68
2023/08/21 17:38:31;;;;;;;5.25;3.50;;;;;;;29.06;43.26;98177.34;10379645;28;20049;-68
2023/08/21 17:43:52;;;;;;;3.60;3.15;;;;;;;28.83;43.59;98167.94;10380338;28;20108;-67
2023/08/21 17:49:14;;;;;;;5.30;3.20;;;;;;;28.62;44.10;98172.91;10379985;28;20045;-68
2023/08/21 17:54:35;;;;;;;3.45;2.95;;;;;;;28.43;44.40;98180.75;10392777;28;20048;-68
2023/08/21 17:59:57;;;;;;;4.53;3.20;;;;;;;28.28;44.47;98187.13;10379643;28;20050;-68
2023/08/21 18:05:18;;;;;;;4.80;3.17;;;;;;;28.09;44.60;98181.31;10379379;28;20081;-68
2023/08/21 18:10:40;;;;;;;9.75;3.58;;;;;;;27.93;44.78;98189.84;10379464;28;20073;-68
2023/08/21 18:16:02;;;;;;;6.63;2.88;;;;;;;27.79;45.12;98198.34;10378893;28;20046;-70
2023/08/21 18:21:24;;;;;;;;;;;;;;;27.65;45.57;98196.09;10379366;28;20046;-67
2023/08/21 18:26:45;;;;;;;10.13;2.90;;;;;;;27.50;45.78;98209.56;10378892;28;20274;-67
2023/08/21 18:32:08;;;;;;;;;;;;;;;27.37;46.60;98208.06;10377891;28;20141;-66
2023/08/21 18:37:30;;;;;;;;;;;;;;;27.27;46.27;98211.56;10379000;28;19921;-67
2023/08/21 18:42:52;;;;;;;6.90;2.88;;;;;;;27.18;45.88;98221.50;10378092;28;20387;-67
2023/08/21 18:48:13;;;;;;;;;;;;;;;27.03;46.80;98234.97;10390757;28;20042;-70
2023/08/21 18:53:35;;;;;;;4.30;2.47;;;;;;;26.93;46.57;98226.25;10377635;28;19921;-69
2023/08/21 18:58:56;;;;;;;7.05;2.83;;;;;;;26.85;46.22;98225.44;10376624;28;20067;-67
2023/08/21 19:04:17;;;;;;;4.70;2.57;;;;;;;26.77;46.67;98231.81;10375852;28;20514;-70
2023/08/21 19:09:39;;;;;;;9.73;3.10;;;;;;;26.67;47.00;98228.81;10377195;28;20538;-67
2023/08/21 19:15:00;;;;;;;12.25;2.92;;;;;;;26.57;46.74;98223.72;10376160;28;20117;-67
2023/08/21 19:20:22;;;;;;;7.83;3.57;;;;;;;26.48;47.17;98233.63;10377186;28;20100;-67
2023/08/21 19:25:43;;;;;;;5.67;3.30;;;;;;;26.38;47.29;98230.63;10389338;28;20073;-68
2023/08/21 19:31:09;;;;;;;5.20;3.60;;;;;;;26.29;47.64;98238.34;10376151;28;20061;-68
2023/08/21 19:36:30;;;;;;;5.47;3.30;;;;;;;26.25;48.06;98244.03;10376179;28;20070;-67
2023/08/21 19:41:51;;;;;;;7.75;3.65;;;;;;;26.22;48.12;98251.13;10375021;28;20049;-67
2023/08/21 19:47:12;;;;;;;4.20;3.45;;;;;;;26.15;48.26;98246.72;10375814;28;20046;-68
2023/08/21 19:52:33;;;;;;;6.05;3.65;;;;;;;26.10;48.84;98250.97;10388264;28;20045;-67
2023/08/21 19:57:54;;;;;;;4.88;3.22;;;;;;;26.08;48.95;98242.38;10375319;28;20073;-67
2023/08/21 20:03:14;;;;;;;7.47;3.90;;;;;;;26.03;48.91;98246.56;10374999;28;20077;-68
2023/08/21 20:08:36;;;;;;;6.38;4.03;;;;;;;25.92;49.19;98257.16;10374949;28;20061;-67
2023/08/21 20:13:57;;;;;;;4.72;3.35;;;;;;;25.84;49.25;98252.03;10374967;28;20118;-67
2023/08/21 20:19:18;;;;;;;4.50;3.47;;;;;;;25.78;50.35;98263.38;10374992;28;20086;-68
2023/08/21 20:24:39;;;;;;;7.60;3.47;;;;;;;25.76;50.02;98266.19;10387102;28;20536;-67
2023/08/21 20:30:00;;;;;;;6.38;3.80;;;;;;;25.66;50.22;98263.88;10373042;28;20042;-68
2023/08/21 20:35:21;;;;;;;13.20;4.47;;;;;;;25.57;50.54;98273.72;10374216;28;20050;-66
2023/08/21 20:40:41;;;;;;;5.97;4.30;;;;;;;25.53;51.01;98273.66;10374237;28;20042;-67
2023/08/21 20:46:04;;;;;;;5.20;4.18;;;;;;;25.46;51.65;98271.38;10373811;28;20144;-67
2023/08/21 20:51:25;;;;;;;5.07;4.40;;;;;;;25.38;51.77;98281.28;10373834;28;20046;-67
2023/08/21 20:56:46;;;;;;;7.57;4.40;;;;;;;25.31;52.23;98279.72;10374074;28;20045;-67
2023/08/21 21:02:08;;;;;;;7.03;4.45;;;;;;;25.27;52.52;98273.19;10373435;28;20462;-67
2023/08/21 21:07:29;;;;;;;;;;;;;;;25.19;53.48;98276.66;10386618;28;20081;-67
2023/08/21 21:12:50;;;;;;;8.75;5.50;;;;;;;25.12;52.74;98275.09;10373421;28;20379;-66
2023/08/21 21:18:10;;;;;;;7.60;5.68;;;;;;;25.03;53.58;98277.06;10373467;28;20049;-67
2023/08/21 21:23:31;;;;;;;10.45;5.05;;;;;;;24.94;53.95;98271.88;10373034;28;20089;-66
2023/08/21 21:28:52;;;;;;;6.78;5.30;;;;;;;24.87;54.03;98276.00;10372337;28;20089;-67
2023/08/21 21:34:13;;;;;;;9.98;4.93;;;;;;;24.76;54.61;98270.09;10373137;28;20451;-67
2023/08/21 21:39:34;;;;;;;9.38;5.50;;;;;;;24.71;54.64;98271.44;10377435;28;20113;-67
2023/08/21 21:44:55;;;;;;;8.47;5.70;;;;;;;24.60;55.38;98272.63;10379560;28;20054;-67
2023/08/21 21:50:16;;;;;;;11.15;5.88;;;;;;;24.51;55.75;98271.00;10380184;28;20319;-67
2023/08/21 21:55:37;;;;;;;6.53;4.75;;;;;;;24.45;56.42;98265.91;10380104;28;20440;-67
2023/08/21 22:00:57;;;;;;;10.27;5.93;;;;;;;24.45;56.55;98268.03;10365082;28;20472;-68
2023/08/21 22:06:18;;;;;;;8.27;5.30;;;;;;;24.41;57.06;98265.09;10392135;28;20053;-68
2023/08/21 22:11:39;;;;;;;8.77;5.32;;;;;;;24.37;57.23;98267.88;10391986;28;20057;-67
2023/08/21 22:17:00;;;;;;;8.95;5.25;;;;;;;24.34;57.46;98266.38;10391773;28;20125;-67
2023/08/21 22:22:20;;;;;;;7.38;6.32;;;;;;;24.31;57.95;98271.28;10378916;28;20121;-66
2023/08/21 22:27:41;;;;;;;8.15;5.88;;;;;;;24.29;58.06;98274.09;10378147;28;20157;-67
2023/08/21 22:33:02;;;;;;;10.55;6.10;;;;;;;24.20;58.43;98278.16;10378624;28;20117;-68
2023/08/21 22:38:23;;;;;;;9.48;5.60;;;;;;;24.15;58.65;98270.94;10378344;28;20065;-67
2023/08/21 22:43:44;;;;;;;8.43;5.30;;;;;;;24.07;59.19;98274.31;10390996;28;20049;-67
2023/08/21 22:49:05;;;;;;;6.97;5.30;;;;;;;24.02;59.46;98260.63;10376893;28;20157;-67
2023/08/21 22:54:26;;;;;;;5.65;4.90;;;;;;;23.90;59.77;98264.66;10390557;28;20080;-67
2023/08/21 22:59:47;;;;;;;7.85;5.60;;;;;;;23.84;60.01;98260.97;10390477;28;20068;-67
2023/08/21 23:05:08;;;;;;;8.32;5.65;;;;;;;23.75;60.51;98247.94;10377209;28;20455;-67
2023/08/21 23:10:29;;;;;;;6.15;5.35;;;;;;;23.72;60.55;98246.41;10377331;28;20073;-67
2023/08/21 23:15:50;;;;;;;9.27;5.22;;;;;;;23.62;60.94;98244.78;10376851;28;20078;-67
2023/08/21 23:21:11;;;;;;;7.90;5.38;;;;;;;23.57;61.08;98248.19;10376793;28;20045;-67
2023/08/21 23:26:31;;;;;;;6.97;5.28;;;;;;;23.47;61.55;98248.66;10361591;28;20090;-67
2023/08/21 23:31:52;;;;;;;7.32;5.38;;;;;;;23.42;61.90;98235.72;10376456;28;20150;-67
2023/08/21 23:37:13;;;;;;;7.97;6.00;;;;;;;23.34;61.87;98241.19;10375134;28;20053;-67
2023/08/21 23:42:34;;;;;;;8.57;5.70;;;;;;;23.28;62.20;98236.09;10375881;28;20066;-67
2023/08/21 23:47:55;;;;;;;9.75;5.90;;;;;;;23.20;63.17;98232.31;10375530;28;20556;-67
2023/08/21 23:53:16;;;;;;;10.95;5.80;;;;;;;23.15;63.01;98231.47;10374469;28;20517;-67
2023/08/21 23:58:38;;;;;;;8.27;5.57;;;;;;;23.12;63.25;98219.31;10375326;28;20037;-67
